Time;durP1;ratioP1;P1;durP2;ratioP2;P2;SDS_P1;SDS_P2;PMS_P1;PMS_P2;Temp;Humidity;BMP_temperature;BMP_pressure;BME280_temperature;BME280_humidity;BME280_pressure;Samples;Min_cycle;Max_cycle;Signal;HPM_P1;HPM_P2
2021/08/09 00:00:39;;;;;;;4.55;4.15;;;;;;;;;;5092133;28;20032;-42
2021/08/09 00:03:06;;;;;;;5.15;3.80;;;;;;;;;;5091758;28;20024;-42
2021/08/09 00:05:33;;;;;;;4.25;3.85;;;;;;;;;;5091870;28;20103;-41
2021/08/09 00:07:59;;;;;;;4.75;4.10;;;;;;;;;;5091857;28;20023;-41
2021/08/09 00:10:27;;;;;;;4.32;3.92;;;;;;;;;;5091759;28;20031;-41
2021/08/09 00:12:53;;;;;;;4.85;3.80;;;;;;;;;;5091845;28;20546;-42
2021/08/09 00:15:19;;;;;;;4.13;3.72;;;;;;;;;;5091721;28;20032;-42
2021/08/09 00:17:45;;;;;;;5.45;4.10;;;;;;;;;;5091601;28;20047;-42
2021/08/09 00:20:12;;;;;;;3.90;3.60;;;;;;;;;;5091781;28;20020;-41
2021/08/09 00:22:38;;;;;;;4.72;3.80;;;;;;;;;;5091810;28;20179;-41
2021/08/09 00:25:05;;;;;;;5.63;4.20;;;;;;;;;;5096800;28;20055;-41
2021/08/09 00:27:31;;;;;;;3.97;3.53;;;;;;;;;;5098469;28;20024;-41
2021/08/09 00:29:57;;;;;;;4.60;3.63;;;;;;;;;;5098454;28;20085;-42
2021/08/09 00:32:23;;;;;;;4.68;3.83;;;;;;;;;;5098398;28;20016;-41
2021/08/09 00:34:49;;;;;;;6.30;4.28;;;;;;;;;;5098533;28;20434;-41
2021/08/09 00:37:15;;;;;;;4.85;4.18;;;;;;;;;;5098498;28;20024;-41
2021/08/09 00:39:41;;;;;;;5.70;4.22;;;;;;;;;;5098347;28;20467;-42
2021/08/09 00:42:07;;;;;;;4.10;3.55;;;;;;;;;;5098289;28;20020;-41
2021/08/09 00:44:34;;;;;;;4.50;3.90;;;;;;;;;;5098236;28;20024;-41
2021/08/09 00:47:00;;;;;;;4.57;4.10;;;;;;;;;;5098247;28;20020;-41
2021/08/09 00:49:26;;;;;;;4.82;3.88;;;;;;;;;;5098196;28;20028;-42
2021/08/09 00:51:52;;;;;;;4.95;3.92;;;;;;;;;;5098141;28;20024;-41
2021/08/09 00:54:19;;;;;;;4.53;4.03;;;;;;;;;;5098325;28;20035;-43
2021/08/09 00:56:45;;;;;;;5.22;3.85;;;;;;;;;;5098386;28;20054;-41
2021/08/09 00:59:12;;;;;;;5.43;3.63;;;;;;;;;;5098401;28;20028;-42
2021/08/09 01:01:38;;;;;;;4.82;3.80;;;;;;;;;;5098225;28;20036;-41
2021/08/09 01:04:05;;;;;;;5.05;4.30;;;;;;;;;;5098303;28;20027;-41
2021/08/09 01:06:31;;;;;;;4.65;4.22;;;;;;;;;;5098327;28;20054;-42
2021/08/09 01:08:57;;;;;;;4.97;4.18;;;;;;;;;;5098310;28;20023;-41
2021/08/09 01:11:36;;;;;;;4.55;4.15;;;;;;;;;;5098046;28;20028;-41
2021/08/09 01:14:21;;;;;;;5.82;4.30;;;;;;;;;;5098069;28;20024;-42
2021/08/09 01:16:48;;;;;;;4.75;4.00;;;;;;;;;;5098003;28;20040;-42
2021/08/09 01:19:14;;;;;;;5.60;4.18;;;;;;;;;;5098143;28;20036;-40
2021/08/09 01:21:40;;;;;;;5.20;4.07;;;;;;;;;;5097943;28;20232;-41
2021/08/09 01:24:14;;;;;;;4.43;4.03;;;;;;;;;;5079693;28;20028;-41
2021/08/09 01:26:40;;;;;;;;;;;;;;;;;;5098385;28;20479;-42
2021/08/09 01:29:08;;;;;;;4.53;4.00;;;;;;;;;;5097879;28;20004;-41
2021/08/09 01:31:47;;;;;;;7.07;4.80;;;;;;;;;;5097844;28;20024;-41
2021/08/09 01:34:13;;;;;;;4.00;3.67;;;;;;;;;;5097730;28;20099;-41
2021/08/09 01:36:44;;;;;;;4.55;4.10;;;;;;;;;;5094545;28;20073;-41
2021/08/09 01:39:11;;;;;;;7.22;4.82;;;;;;;;;;5094485;28;20032;-41
2021/08/09 01:41:39;;;;;;;6.93;5.22;;;;;;;;;;5094556;28;20418;-41
2021/08/09 01:44:05;;;;;;;4.88;4.40;;;;;;;;;;5093866;28;20020;-42
2021/08/09 01:46:32;;;;;;;3.80;3.50;;;;;;;;;;5094401;28;20130;-42
2021/08/09 01:48:59;;;;;;;5.60;5.00;;;;;;;;;;5094413;28;20020;-42
2021/08/09 01:51:25;;;;;;;4.80;4.40;;;;;;;;;;5094329;28;20069;-41
2021/08/09 01:53:53;;;;;;;8.70;5.13;;;;;;;;;;5094309;28;20032;-41
2021/08/09 01:56:20;;;;;;;6.10;4.20;;;;;;;;;;5094313;28;20020;-41
2021/08/09 01:58:46;;;;;;;5.85;4.85;;;;;;;;;;5094431;28;20059;-41
2021/08/09 02:01:12;;;;;;;4.55;4.15;;;;;;;;;;5094342;28;20024;-42
2021/08/09 02:03:38;;;;;;;5.88;4.10;;;;;;;;;;5094139;28;20028;-42
2021/08/09 02:06:04;;;;;;;4.55;4.15;;;;;;;;;;5094032;28;20017;-41
2021/08/09 02:08:30;;;;;;;4.80;4.28;;;;;;;;;;5093977;28;20507;-41
2021/08/09 02:11:01;;;;;;;5.32;3.90;;;;;;;;;;5094055;28;20033;-40
2021/08/09 02:13:31;;;;;;;4.03;3.70;;;;;;;;;;5093770;28;20368;-42
2021/08/09 02:15:57;;;;;;;4.68;3.55;;;;;;;;;;5093936;28;20028;-42
2021/08/09 02:18:30;;;;;;;6.38;3.50;;;;;;;;;;5093756;28;20059;-41
2021/08/09 02:20:58;;;;;;;4.60;4.20;;;;;;;;;;5093779;28;20028;-41
2021/08/09 02:23:29;;;;;;;5.10;4.13;;;;;;;;;;5093640;28;20025;-42
2021/08/09 02:25:56;;;;;;;4.63;4.22;;;;;;;;;;5093648;28;20523;-42
2021/08/09 02:28:24;;;;;;;4.70;3.67;;;;;;;;;;5093574;28;20030;-41
2021/08/09 02:30:53;;;;;;;5.43;4.13;;;;;;;;;;5093671;28;20035;-42
2021/08/09 02:33:21;;;;;;;5.13;4.03;;;;;;;;;;5093705;28;20120;-42
2021/08/09 02:35:48;;;;;;;6.03;3.80;;;;;;;;;;5093534;28;20109;-41
2021/08/09 02:38:15;;;;;;;6.50;3.90;;;;;;;;;;5093523;28;20061;-41
2021/08/09 02:40:42;;;;;;;4.60;3.75;;;;;;;;;;5093575;28;20142;-41
2021/08/09 02:43:08;;;;;;;4.38;3.53;;;;;;;;;;5093593;28;20024;-41
2021/08/09 02:45:34;;;;;;;3.60;3.30;;;;;;;;;;5093586;28;20805;-41
2021/08/09 02:48:00;;;;;;;4.45;4.05;;;;;;;;;;5092221;28;20517;-41
2021/08/09 02:50:27;;;;;;;5.50;3.85;;;;;;;;;;5093319;28;20020;-41
2021/08/09 02:52:53;;;;;;;4.05;3.75;;;;;;;;;;5093431;28;20028;-41
2021/08/09 02:55:21;;;;;;;6.05;4.13;;;;;;;;;;5093142;28;20032;-41
2021/08/09 02:57:48;;;;;;;3.78;3.47;;;;;;;;;;5093202;28;20364;-41
2021/08/09 03:00:14;;;;;;;8.10;3.92;;;;;;;;;;5075012;28;20051;-41
2021/08/09 03:02:42;;;;;;;3.92;3.63;;;;;;;;;;5092854;28;20028;-41
2021/08/09 03:05:08;;;;;;;4.18;3.88;;;;;;;;;;5092909;28;20099;-41
2021/08/09 03:07:36;;;;;;;5.15;3.75;;;;;;;;;;5092769;28;20020;-42
2021/08/09 03:10:02;;;;;;;4.10;3.70;;;;;;;;;;5092778;28;20020;-42
2021/08/09 03:12:28;;;;;;;4.00;3.38;;;;;;;;;;5092831;28;20066;-42
2021/08/09 03:14:54;;;;;;;4.35;3.42;;;;;;;;;;5092818;28;20016;-42
2021/08/09 03:17:20;;;;;;;3.25;2.83;;;;;;;;;;5092550;28;20044;-42
2021/08/09 03:19:46;;;;;;;5.25;3.65;;;;;;;;;;5092548;28;20111;-41
2021/08/09 03:22:12;;;;;;;3.20;2.90;;;;;;;;;;5092123;28;20107;-42
2021/08/09 03:24:39;;;;;;;4.85;3.30;;;;;;;;;;5092470;28;20020;-41
2021/08/09 03:27:05;;;;;;;4.72;3.60;;;;;;;;;;5092499;28;20024;-42
2021/08/09 03:29:31;;;;;;;5.10;3.20;;;;;;;;;;5092490;28;20102;-43
2021/08/09 03:31:57;;;;;;;3.63;3.30;;;;;;;;;;5092530;28;20020;-41
2021/08/09 03:34:23;;;;;;;3.92;3.50;;;;;;;;;;5091876;28;20024;-41
2021/08/09 03:36:52;;;;;;;4.55;3.50;;;;;;;;;;5092307;28;20024;-41
2021/08/09 03:39:18;;;;;;;4.07;3.50;;;;;;;;;;5092271;28;20032;-40
2021/08/09 03:41:44;;;;;;;3.60;3.30;;;;;;;;;;5092195;28;20536;-42
2021/08/09 03:44:10;;;;;;;3.70;3.40;;;;;;;;;;5092242;28;20059;-42
2021/08/09 03:46:37;;;;;;;4.00;3.60;;;;;;;;;;5074065;28;20024;-42
2021/08/09 03:49:07;;;;;;;3.50;3.20;;;;;;;;;;5092188;28;20016;-41
2021/08/09 03:51:33;;;;;;;3.47;3.28;;;;;;;;;;5092194;28;20024;-42
2021/08/09 03:53:59;;;;;;;3.40;3.10;;;;;;;;;;5092063;28;20055;-41
2021/08/09 03:56:25;;;;;;;3.85;3.45;;;;;;;;;;5073907;28;20398;-41
2021/08/09 03:58:51;;;;;;;4.05;3.75;;;;;;;;;;5091704;28;20032;-42
2021/08/09 04:01:17;;;;;;;4.32;3.92;;;;;;;;;;5086068;28;20482;-42
2021/08/09 04:03:44;;;;;;;3.95;3.65;;;;;;;;;;5085355;28;20027;-41
2021/08/09 04:06:10;;;;;;;4.97;3.92;;;;;;;;;;5092121;28;20017;-40
2021/08/09 04:08:40;;;;;;;4.20;3.80;;;;;;;;;;5091892;28;20491;-41
2021/08/09 04:11:06;;;;;;;4.95;3.38;;;;;;;;;;5073631;28;20502;-42
2021/08/09 04:13:34;;;;;;;4.35;3.95;;;;;;;;;;5091741;28;20031;-42
2021/08/09 04:16:00;;;;;;;5.43;3.78;;;;;;;;;;5092062;28;20032;-42
2021/08/09 04:18:26;;;;;;;4.65;3.90;;;;;;;;;;5091548;28;20123;-42
2021/08/09 04:20:52;;;;;;;5.05;4.10;;;;;;;;;;5091912;28;20031;-41
2021/08/09 04:23:18;;;;;;;3.95;3.60;;;;;;;;;;5091149;28;20032;-42
2021/08/09 04:25:44;;;;;;;7.05;4.15;;;;;;;;;;5091664;28;20390;-41
2021/08/09 04:28:10;;;;;;;5.22;4.05;;;;;;;;;;5091677;28;20024;-41
2021/08/09 04:30:36;;;;;;;4.57;4.18;;;;;;;;;;5091675;28;20360;-41
2021/08/09 04:33:05;;;;;;;6.00;4.47;;;;;;;;;;5091798;28;20032;-42
2021/08/09 04:35:31;;;;;;;4.75;4.30;;;;;;;;;;5091575;28;20028;-41
2021/08/09 04:37:57;;;;;;;6.68;4.57;;;;;;;;;;5091505;28;20111;-42
2021/08/09 04:40:24;;;;;;;4.30;3.90;;;;;;;;;;5091570;28;20024;-42
2021/08/09 04:42:50;;;;;;;5.28;4.45;;;;;;;;;;5091614;28;20063;-41
2021/08/09 04:45:16;;;;;;;8.07;4.68;;;;;;;;;;5091910;28;20020;-42
2021/08/09 04:47:42;;;;;;;6.88;4.72;;;;;;;;;;5073386;28;20020;-42
2021/08/09 04:50:08;;;;;;;5.50;4.93;;;;;;;;;;5073386;28;20016;-41
2021/08/09 04:52:39;;;;;;;6.53;4.55;;;;;;;;;;5090967;28;20028;-42
2021/08/09 04:55:05;;;;;;;6.90;4.47;;;;;;;;;;5091637;28;20021;-40
2021/08/09 04:57:32;;;;;;;5.82;4.78;;;;;;;;;;5091711;28;20039;-42
2021/08/09 04:59:58;;;;;;;9.52;5.25;;;;;;;;;;5091441;28;20784;-41
2021/08/09 05:02:24;;;;;;;5.20;3.97;;;;;;;;;;5072191;28;20437;-42
2021/08/09 05:04:50;;;;;;;6.65;4.68;;;;;;;;;;5090144;28;20016;-41
2021/08/09 05:07:16;;;;;;;4.88;4.47;;;;;;;;;;5086753;28;20058;-43
2021/08/09 05:09:42;;;;;;;6.70;5.18;;;;;;;;;;5084578;28;20021;-41
2021/08/09 05:12:08;;;;;;;5.22;4.72;;;;;;;;;;5090462;28;20070;-42
2021/08/09 05:14:35;;;;;;;5.00;4.50;;;;;;;;;;5088043;28;20051;-43
2021/08/09 05:17:01;;;;;;;5.55;4.63;;;;;;;;;;5094283;28;20127;-41
2021/08/09 05:19:27;;;;;;;6.00;5.20;;;;;;;;;;5094875;28;20055;-42
2021/08/09 05:21:53;;;;;;;5.78;5.13;;;;;;;;;;5094960;28;20027;-42
2021/08/09 05:24:19;;;;;;;5.05;4.10;;;;;;;;;;5092745;28;20028;-41
2021/08/09 05:26:45;;;;;;;5.15;4.65;;;;;;;;;;5094218;28;20498;-43
2021/08/09 05:29:11;;;;;;;6.28;5.25;;;;;;;;;;5093903;28;20016;-40
2021/08/09 05:31:38;;;;;;;7.28;5.03;;;;;;;;;;5093205;28;20027;-42
2021/08/09 05:34:04;;;;;;;8.20;5.45;;;;;;;;;;5093733;28;20082;-41
2021/08/09 05:36:30;;;;;;;5.10;4.40;;;;;;;;;;5094692;28;20031;-42
2021/08/09 05:38:59;;;;;;;5.55;4.55;;;;;;;;;;5094547;28;20115;-42
2021/08/09 05:41:25;;;;;;;5.38;4.88;;;;;;;;;;5094502;28;20017;-41
2021/08/09 05:43:51;;;;;;;5.55;4.93;;;;;;;;;;5094439;28;20032;-42
2021/08/09 05:46:17;;;;;;;5.90;5.30;;;;;;;;;;5094415;28;20024;-41
2021/08/09 05:48:43;;;;;;;6.88;5.15;;;;;;;;;;5094453;28;20386;-42
2021/08/09 05:51:09;;;;;;;7.00;6.25;;;;;;;;;;5094642;28;20027;-43
2021/08/09 05:53:35;;;;;;;6.28;5.68;;;;;;;;;;5094226;28;20024;-44
2021/08/09 05:56:01;;;;;;;8.35;5.32;;;;;;;;;;5094264;28;20020;-42
2021/08/09 05:58:27;;;;;;;5.80;5.22;;;;;;;;;;5094281;28;20028;-41
2021/08/09 06:00:53;;;;;;;6.25;5.30;;;;;;;;;;5094416;28;20727;-42
2021/08/09 06:03:22;;;;;;;6.95;4.93;;;;;;;;;;5094273;28;20070;-41
2021/08/09 06:05:48;;;;;;;6.38;5.78;;;;;;;;;;5094061;28;20062;-42
2021/08/09 06:08:14;;;;;;;7.05;5.78;;;;;;;;;;5094295;28;20032;-42
2021/08/09 06:10:40;;;;;;;6.60;5.40;;;;;;;;;;5094286;28;20024;-42
2021/08/09 06:13:06;;;;;;;8.23;6.05;;;;;;;;;;5075996;28;20024;-41
2021/08/09 06:15:32;;;;;;;7.65;5.80;;;;;;;;;;5093883;28;20377;-42
2021/08/09 06:17:58;;;;;;;5.95;4.93;;;;;;;;;;5093823;28;20086;-42
2021/08/09 06:20:25;;;;;;;6.55;5.95;;;;;;;;;;5093611;28;20028;-42
2021/08/09 06:22:51;;;;;;;6.60;5.88;;;;;;;;;;5093323;28;20028;-42
2021/08/09 06:25:17;;;;;;;6.05;5.43;;;;;;;;;;5092986;28;20036;-42
2021/08/09 06:27:44;;;;;;;7.50;5.60;;;;;;;;;;5092937;28;20501;-42
2021/08/09 06:30:10;;;;;;;6.07;5.40;;;;;;;;;;5093638;28;20367;-41
2021/08/09 06:32:37;;;;;;;7.70;5.15;;;;;;;;;;5093244;28;20141;-41
2021/08/09 06:35:03;;;;;;;6.40;5.40;;;;;;;;;;5093048;28;20035;-41
2021/08/09 06:37:29;;;;;;;6.05;5.45;;;;;;;;;;5093417;28;20418;-43
2021/08/09 06:39:55;;;;;;;6.55;5.68;;;;;;;;;;5093586;28;20387;-44
2021/08/09 06:42:21;;;;;;;6.90;5.57;;;;;;;;;;5093231;28;20028;-42
2021/08/09 06:44:47;;;;;;;5.97;4.93;;;;;;;;;;5092075;28;20041;-43
2021/08/09 06:47:13;;;;;;;6.32;5.68;;;;;;;;;;5093316;28;20107;-43
2021/08/09 06:49:42;;;;;;;7.20;6.05;;;;;;;;;;5093075;28;20103;-42
2021/08/09 06:52:08;;;;;;;6.45;5.57;;;;;;;;;;5083547;28;20437;-43
2021/08/09 06:54:34;;;;;;;6.63;5.07;;;;;;;;;;5081396;28;20019;-42
2021/08/09 06:57:00;;;;;;;7.10;5.22;;;;;;;;;;5082424;28;20399;-44
2021/08/09 06:59:26;;;;;;;6.43;5.82;;;;;;;;;;5080713;28;20017;-45
2021/08/09 07:01:52;;;;;;;6.32;5.72;;;;;;;;;;5081589;28;20017;-44
2021/08/09 07:04:18;;;;;;;6.63;5.38;;;;;;;;;;5082203;28;20017;-43
2021/08/09 07:06:48;;;;;;;8.07;6.10;;;;;;;;;;5080364;28;20019;-46
2021/08/09 07:09:14;;;;;;;6.28;4.88;;;;;;;;;;5081226;28;20039;-46
2021/08/09 07:11:41;;;;;;;6.22;5.40;;;;;;;;;;5082191;28;20101;-44
2021/08/09 07:14:07;;;;;;;6.20;5.60;;;;;;;;;;5080512;28;20111;-45
2021/08/09 07:16:33;;;;;;;7.07;5.22;;;;;;;;;;5080817;28;20120;-45
2021/08/09 07:18:59;;;;;;;6.65;5.75;;;;;;;;;;5082038;28;20029;-45
2021/08/09 07:21:25;;;;;;;6.95;6.25;;;;;;;;;;5080011;28;20020;-45
2021/08/09 07:23:51;;;;;;;6.65;5.88;;;;;;;;;;5081256;28;20476;-45
2021/08/09 07:26:17;;;;;;;9.05;5.60;;;;;;;;;;5084096;28;20023;-47
2021/08/09 07:28:43;;;;;;;7.10;5.50;;;;;;;;;;5091828;28;20024;-45
2021/08/09 07:31:09;;;;;;;5.40;5.00;;;;;;;;;;5090884;28;20031;-43
2021/08/09 07:33:35;;;;;;;5.50;5.00;;;;;;;;;;5090680;28;20675;-43
2021/08/09 07:36:04;;;;;;;6.30;5.68;;;;;;;;;;5073898;28;20422;-43
2021/08/09 07:38:30;;;;;;;6.80;5.72;;;;;;;;;;5091226;28;20158;-43
2021/08/09 07:40:56;;;;;;;5.85;5.13;;;;;;;;;;5091605;28;20024;-43
2021/08/09 07:43:22;;;;;;;6.40;5.50;;;;;;;;;;5090372;28;20024;-44
2021/08/09 07:45:48;;;;;;;6.72;5.55;;;;;;;;;;5089738;28;20029;-43
2021/08/09 07:48:14;;;;;;;7.82;5.75;;;;;;;;;;5089806;28;20016;-42
2021/08/09 07:50:42;;;;;;;6.20;5.60;;;;;;;;;;5089783;28;20028;-44
2021/08/09 07:53:08;;;;;;;6.95;6.03;;;;;;;;;;5089855;28;20024;-45
2021/08/09 07:55:34;;;;;;;8.73;7.68;;;;;;;;;;5089784;28;20024;-44
2021/08/09 07:58:00;;;;;;;13.10;7.72;;;;;;;;;;5090574;28;20024;-44
2021/08/09 08:00:26;;;;;;;6.85;5.90;;;;;;;;;;5090096;28;20027;-44
2021/08/09 08:02:52;;;;;;;6.80;5.70;;;;;;;;;;5090610;28;20348;-44
2021/08/09 08:05:19;;;;;;;6.75;5.40;;;;;;;;;;5090624;28;20475;-43
2021/08/09 08:07:45;;;;;;;6.50;5.80;;;;;;;;;;5090614;28;20099;-43
2021/08/09 08:10:11;;;;;;;5.88;5.28;;;;;;;;;;5091554;28;20066;-44
2021/08/09 08:12:37;;;;;;;5.93;5.43;;;;;;;;;;5091735;28;20020;-42
2021/08/09 08:15:03;;;;;;;5.72;5.20;;;;;;;;;;5091524;28;20099;-42
2021/08/09 08:17:29;;;;;;;5.05;4.65;;;;;;;;;;5091494;28;20075;-44
2021/08/09 08:19:55;;;;;;;6.68;5.00;;;;;;;;;;5091534;28;20032;-43
2021/08/09 08:22:21;;;;;;;5.75;5.25;;;;;;;;;;5091494;28;20395;-43
2021/08/09 08:24:47;;;;;;;5.60;5.10;;;;;;;;;;5091479;28;20024;-44
2021/08/09 08:27:13;;;;;;;6.15;4.78;;;;;;;;;;5091503;28;20024;-43
2021/08/09 08:29:39;;;;;;;5.00;4.60;;;;;;;;;;5091546;28;20028;-43
2021/08/09 08:32:06;;;;;;;6.03;5.07;;;;;;;;;;5091534;28;20037;-43
2021/08/09 08:34:32;;;;;;;6.28;5.50;;;;;;;;;;5073568;28;20119;-43
2021/08/09 08:36:58;;;;;;;7.35;5.18;;;;;;;;;;5073567;28;20093;-44
2021/08/09 08:39:24;;;;;;;5.95;5.05;;;;;;;;;;5091566;28;20433;-43
2021/08/09 08:41:52;;;;;;;5.55;4.82;;;;;;;;;;5090671;28;20020;-43
2021/08/09 08:44:21;;;;;;;6.32;5.28;;;;;;;;;;5091337;28;20020;-46
2021/08/09 08:46:47;;;;;;;7.85;5.47;;;;;;;;;;5095199;28;20042;-44
2021/08/09 08:49:14;;;;;;;7.32;5.65;;;;;;;;;;5083864;28;20175;-43
2021/08/09 08:51:44;;;;;;;6.10;5.03;;;;;;;;;;5078639;28;20082;-44
2021/08/09 08:54:12;;;;;;;5.78;5.05;;;;;;;;;;5074859;28;20464;-43
2021/08/09 08:56:42;;;;;;;5.95;5.28;;;;;;;;;;5077498;28;20066;-43
2021/08/09 08:59:13;;;;;;;7.57;5.60;;;;;;;;;;5090356;28;20020;-43
2021/08/09 09:01:40;;;;;;;6.80;5.70;;;;;;;;;;5076439;28;20439;-43
2021/08/09 09:04:24;;;;;;;6.05;5.45;;;;;;;;;;5093872;28;20020;-43
2021/08/09 09:06:59;;;;;;;7.43;5.60;;;;;;;;;;5094324;28;20024;-44
2021/08/09 09:09:26;;;;;;;6.47;5.88;;;;;;;;;;5094105;28;20020;-45
2021/08/09 09:11:52;;;;;;;5.80;5.30;;;;;;;;;;5094504;28;20458;-45
2021/08/09 09:14:32;;;;;;;9.52;5.70;;;;;;;;;;5094493;28;20052;-44
2021/08/09 09:16:59;;;;;;;5.50;4.97;;;;;;;;;;5094016;28;20079;-43
2021/08/09 09:19:57;;;;;;;6.35;5.75;;;;;;;;;;5090254;28;20024;-44
2021/08/09 09:22:23;;;;;;;6.47;5.97;;;;;;;;;;5060081;28;20068;-43
2021/08/09 09:24:51;;;;;;;6.55;5.82;;;;;;;;;;5094083;28;20125;-44
2021/08/09 09:27:46;;;;;;;9.13;5.78;;;;;;;;;;5094267;28;20016;-43
2021/08/09 09:30:26;;;;;;;7.10;5.13;;;;;;;;;;5080461;28;20490;-44
2021/08/09 09:32:59;;;;;;;6.95;6.25;;;;;;;;;;5090190;28;20402;-44
2021/08/09 09:35:26;;;;;;;6.13;5.53;;;;;;;;;;5094544;28;20115;-42
2021/08/09 09:37:52;;;;;;;5.60;5.10;;;;;;;;;;5092580;28;20514;-43
2021/08/09 09:40:20;;;;;;;5.85;5.13;;;;;;;;;;5093620;28;20417;-43
2021/08/09 09:42:46;;;;;;;7.45;5.93;;;;;;;;;;5093557;28;20136;-44
2021/08/09 09:45:19;;;;;;;8.88;6.03;;;;;;;;;;5075391;28;20535;-45
2021/08/09 09:47:45;;;;;;;7.90;5.50;;;;;;;;;;5093203;28;20047;-44
2021/08/09 09:50:24;;;;;;;6.78;5.38;;;;;;;;;;5089955;28;20035;-45
2021/08/09 09:52:51;;;;;;;6.55;5.78;;;;;;;;;;5082310;28;20095;-44
2021/08/09 09:55:17;;;;;;;6.65;5.75;;;;;;;;;;5081408;28;20045;-44
2021/08/09 09:57:44;;;;;;;6.47;5.80;;;;;;;;;;5092028;28;20020;-44
2021/08/09 10:00:12;;;;;;;7.22;5.93;;;;;;;;;;5093460;28;20039;-44
2021/08/09 10:02:39;;;;;;;6.03;5.43;;;;;;;;;;5093621;28;20012;-46
2021/08/09 10:05:05;;;;;;;7.00;6.30;;;;;;;;;;5078309;28;20058;-45
2021/08/09 10:07:34;;;;;;;7.10;5.55;;;;;;;;;;5073042;28;20111;-45
2021/08/09 10:10:01;;;;;;;8.05;6.35;;;;;;;;;;5072730;28;20013;-44
2021/08/09 10:12:29;;;;;;;6.10;5.43;;;;;;;;;;5073497;28;20021;-44
2021/08/09 10:14:56;;;;;;;7.28;6.57;;;;;;;;;;5090291;28;20032;-45
2021/08/09 10:17:22;;;;;;;6.68;6.00;;;;;;;;;;5093148;28;20056;-44
2021/08/09 10:19:50;;;;;;;7.10;6.28;;;;;;;;;;5093124;28;20028;-44
2021/08/09 10:22:20;;;;;;;8.20;6.18;;;;;;;;;;5074672;28;20028;-45
2021/08/09 10:24:48;;;;;;;7.88;6.30;;;;;;;;;;5073051;28;20016;-43
2021/08/09 10:27:14;;;;;;;6.50;5.50;;;;;;;;;;5073009;28;20021;-43
2021/08/09 10:29:59;;;;;;;5.75;4.90;;;;;;;;;;5072913;28;20083;-44
2021/08/09 10:32:25;;;;;;;6.05;5.50;;;;;;;;;;5072158;28;20031;-44
2021/08/09 10:34:52;;;;;;;6.10;5.50;;;;;;;;;;5054460;28;20040;-44
2021/08/09 10:37:20;;;;;;;5.90;5.30;;;;;;;;;;5071964;28;20100;-44
2021/08/09 10:39:49;;;;;;;11.93;6.43;;;;;;;;;;5072470;28;20036;-45
2021/08/09 10:42:34;;;;;;;7.43;5.93;;;;;;;;;;5072634;28;20024;-44
2021/08/09 10:45:01;;;;;;;6.07;5.47;;;;;;;;;;5072287;28;20487;-45
2021/08/09 10:47:47;;;;;;;5.28;4.78;;;;;;;;;;5079593;28;20029;-45
2021/08/09 10:50:23;;;;;;;6.70;5.97;;;;;;;;;;5071807;28;20020;-43
2021/08/09 10:52:49;;;;;;;7.10;5.97;;;;;;;;;;5072233;28;20348;-44
2021/08/09 10:55:35;;;;;;;5.75;5.10;;;;;;;;;;5073056;28;20107;-44
2021/08/09 10:58:05;;;;;;;7.20;5.88;;;;;;;;;;5065591;28;20044;-46
2021/08/09 11:00:43;;;;;;;6.80;5.30;;;;;;;;;;5072819;28;20032;-45
2021/08/09 11:03:13;;;;;;;8.77;5.50;;;;;;;;;;5072870;28;20532;-45
2021/08/09 11:05:39;;;;;;;6.97;5.75;;;;;;;;;;5063121;28;20024;-44
2021/08/09 11:08:21;;;;;;;7.40;5.40;;;;;;;;;;5081616;28;20387;-46
2021/08/09 11:10:54;;;;;;;6.32;5.65;;;;;;;;;;5064535;28;20433;-43
2021/08/09 11:13:20;;;;;;;5.78;5.18;;;;;;;;;;5081733;28;20108;-47
2021/08/09 11:15:56;;;;;;;5.82;5.25;;;;;;;;;;5080174;28;20081;-44
2021/08/09 11:18:23;;;;;;;5.50;5.05;;;;;;;;;;5080046;28;20067;-45
2021/08/09 11:21:00;;;;;;;6.93;4.50;;;;;;;;;;5064064;28;20168;-48
2021/08/09 11:23:27;;;;;;;12.60;4.95;;;;;;;;;;5082321;28;20020;-48
2021/08/09 11:25:53;;;;;;;5.90;5.10;;;;;;;;;;5080131;28;20024;-46
2021/08/09 11:28:23;;;;;;;9.27;5.10;;;;;;;;;;5080436;28;20036;-44
2021/08/09 11:30:50;;;;;;;7.57;5.00;;;;;;;;;;5079828;28;20490;-45
2021/08/09 11:33:26;;;;;;;7.78;5.05;;;;;;;;;;5081268;28;20029;-44
2021/08/09 11:35:52;;;;;;;9.13;4.82;;;;;;;;;;5080029;28;20173;-45
2021/08/09 11:38:19;;;;;;;6.97;4.90;;;;;;;;;;5080516;28;20391;-45
2021/08/09 11:40:45;;;;;;;5.20;4.70;;;;;;;;;;5082096;28;20028;-45
2021/08/09 11:43:12;;;;;;;5.05;4.55;;;;;;;;;;5079969;28;20146;-43
2021/08/09 11:45:38;;;;;;;9.27;5.07;;;;;;;;;;5080752;28;20022;-45
2021/08/09 11:48:05;;;;;;;5.28;4.78;;;;;;;;;;5087039;28;20024;-45
2021/08/09 11:50:36;;;;;;;4.95;4.55;;;;;;;;;;5081893;28;20043;-43
2021/08/09 11:53:02;;;;;;;5.25;4.68;;;;;;;;;;5080834;28;20149;-45
2021/08/09 11:55:28;;;;;;;6.07;5.45;;;;;;;;;;5079455;28;20016;-45
2021/08/09 11:57:54;;;;;;;8.13;6.38;;;;;;;;;;5081364;28;20036;-45
2021/08/09 12:00:23;;;;;;;9.43;5.03;;;;;;;;;;5079620;28;20021;-43
2021/08/09 12:03:08;;;;;;;5.68;5.18;;;;;;;;;;5062102;28;20032;-45
2021/08/09 12:05:34;;;;;;;6.40;4.95;;;;;;;;;;5081583;28;20013;-44
2021/08/09 12:08:04;;;;;;;7.15;4.80;;;;;;;;;;5079549;28;20091;-44
2021/08/09 12:10:30;;;;;;;5.78;4.80;;;;;;;;;;5079838;28;20475;-45
2021/08/09 12:12:56;;;;;;;5.55;5.05;;;;;;;;;;5081481;28;20471;-45
2021/08/09 12:15:23;;;;;;;5.93;4.47;;;;;;;;;;5079690;28;20021;-45
2021/08/09 12:18:10;;;;;;;7.15;4.38;;;;;;;;;;5079949;28;20052;-44
2021/08/09 12:20:36;;;;;;;6.60;4.10;;;;;;;;;;5080714;28;20028;-44
2021/08/09 12:23:03;;;;;;;6.03;4.18;;;;;;;;;;5063895;28;20028;-43
2021/08/09 12:25:39;;;;;;;5.70;3.40;;;;;;;;;;5079567;28;20020;-43
2021/08/09 12:28:06;;;;;;;4.03;3.72;;;;;;;;;;5079700;28;20020;-44
2021/08/09 12:30:51;;;;;;;5.82;3.75;;;;;;;;;;5063186;28;20417;-44
2021/08/09 12:33:17;;;;;;;3.85;3.45;;;;;;;;;;5079009;28;20029;-44
2021/08/09 12:35:44;;;;;;;5.50;3.50;;;;;;;;;;5080317;28;20020;-43
2021/08/09 12:38:11;;;;;;;7.03;3.30;;;;;;;;;;5080380;28;20024;-43
2021/08/09 12:40:38;;;;;;;4.03;3.38;;;;;;;;;;5078859;28;20468;-45
2021/08/09 12:43:07;;;;;;;4.82;3.85;;;;;;;;;;5080069;28;20028;-44
2021/08/09 12:45:33;;;;;;;4.88;3.35;;;;;;;;;;5080781;28;20070;-45
2021/08/09 12:47:59;;;;;;;6.07;3.28;;;;;;;;;;5078957;28;20016;-44
2021/08/09 12:50:25;;;;;;;5.15;2.92;;;;;;;;;;5079790;28;20102;-46
2021/08/09 12:52:51;;;;;;;3.20;2.90;;;;;;;;;;5080736;28;20098;-44
2021/08/09 12:55:17;;;;;;;3.35;3.05;;;;;;;;;;5079279;28;20484;-45
2021/08/09 12:57:43;;;;;;;3.70;3.10;;;;;;;;;;5062464;28;20850;-44
2021/08/09 13:00:09;;;;;;;5.47;2.97;;;;;;;;;;5081927;28;20097;-44
2021/08/09 13:02:35;;;;;;;3.72;3.30;;;;;;;;;;5079998;28;20407;-44
2021/08/09 13:05:02;;;;;;;3.70;2.80;;;;;;;;;;5062233;28;20111;-45
2021/08/09 13:07:28;;;;;;;3.10;2.90;;;;;;;;;;5081792;28;20056;-46
2021/08/09 13:09:57;;;;;;;3.22;2.92;;;;;;;;;;5079773;28;20464;-43
2021/08/09 13:12:23;;;;;;;3.83;2.50;;;;;;;;;;5080024;28;20051;-44
2021/08/09 13:14:49;;;;;;;2.95;2.65;;;;;;;;;;5081422;28;20028;-43
2021/08/09 13:17:15;;;;;;;2.72;2.53;;;;;;;;;;5079716;28;20056;-43
2021/08/09 13:19:41;;;;;;;2.60;2.40;;;;;;;;;;5062127;28;20032;-43
2021/08/09 13:22:07;;;;;;;3.08;2.83;;;;;;;;;;5081448;28;20028;-44
2021/08/09 13:24:33;;;;;;;3.42;2.60;;;;;;;;;;5079403;28;20032;-44
2021/08/09 13:26:59;;;;;;;4.30;2.72;;;;;;;;;;5079195;28;20024;-43
2021/08/09 13:29:25;;;;;;;2.80;2.60;;;;;;;;;;5080149;28;20078;-44
2021/08/09 13:31:51;;;;;;;2.65;2.45;;;;;;;;;;5061270;28;20030;-46
2021/08/09 13:34:17;;;;;;;2.58;2.38;;;;;;;;;;5081982;28;20024;-44
2021/08/09 13:36:43;;;;;;;3.45;2.50;;;;;;;;;;5083296;28;20020;-43
2021/08/09 13:39:09;;;;;;;2.63;2.42;;;;;;;;;;5083949;28;20013;-45
2021/08/09 13:41:36;;;;;;;2.63;2.30;;;;;;;;;;5082055;28;20024;-44
2021/08/09 13:44:02;;;;;;;4.75;2.53;;;;;;;;;;5065327;28;20127;-44
2021/08/09 13:46:28;;;;;;;3.17;2.50;;;;;;;;;;5083424;28;20476;-47
2021/08/09 13:48:54;;;;;;;2.55;2.35;;;;;;;;;;5081690;28;20021;-46
2021/08/09 13:51:20;;;;;;;3.33;2.30;;;;;;;;;;5083663;28;20016;-46
2021/08/09 13:53:46;;;;;;;2.47;2.20;;;;;;;;;;5083064;28;20472;-45
2021/08/09 13:56:12;;;;;;;2.63;2.40;;;;;;;;;;5081750;28;20035;-45
2021/08/09 13:58:40;;;;;;;5.43;2.45;;;;;;;;;;5081933;28;20017;-45
2021/08/09 14:01:06;;;;;;;2.80;2.60;;;;;;;;;;5082848;28;20099;-43
2021/08/09 14:03:34;;;;;;;3.53;2.53;;;;;;;;;;5083672;28;20107;-44
2021/08/09 14:06:00;;;;;;;5.97;2.50;;;;;;;;;;5081992;28;20012;-44
2021/08/09 14:08:26;;;;;;;3.17;2.53;;;;;;;;;;5064460;28;20421;-45
2021/08/09 14:10:52;;;;;;;2.85;2.60;;;;;;;;;;5083682;28;20054;-44
2021/08/09 14:13:22;;;;;;;2.97;2.67;;;;;;;;;;5081776;28;20029;-48
2021/08/09 14:15:48;;;;;;;2.60;2.40;;;;;;;;;;5082199;28;20039;-45
2021/08/09 14:18:14;;;;;;;3.03;2.50;;;;;;;;;;5083315;28;20063;-48
2021/08/09 14:20:40;;;;;;;2.15;2.05;;;;;;;;;;5081762;28;20032;-45
2021/08/09 14:23:06;;;;;;;3.95;2.30;;;;;;;;;;5082081;28;20099;-45
2021/08/09 14:25:36;;;;;;;3.53;2.60;;;;;;;;;;5083066;28;20024;-45
2021/08/09 14:28:03;;;;;;;2.67;2.33;;;;;;;;;;5079904;28;20020;-44
2021/08/09 14:30:29;;;;;;;3.33;2.30;;;;;;;;;;5081736;28;20023;-44
2021/08/09 14:32:55;;;;;;;3.33;2.90;;;;;;;;;;5083259;28;20023;-45
2021/08/09 14:35:21;;;;;;;2.97;2.55;;;;;;;;;;5081549;28;20023;-43
2021/08/09 14:37:47;;;;;;;2.30;2.10;;;;;;;;;;5081713;28;20069;-47
2021/08/09 14:40:14;;;;;;;3.60;2.38;;;;;;;;;;5082836;28;20498;-45
2021/08/09 14:42:41;;;;;;;4.15;2.30;;;;;;;;;;5080954;28;20029;-43
2021/08/09 14:45:08;;;;;;;4.63;2.13;;;;;;;;;;5063272;28;20027;-44